Staffordsville, Virginia
Current Conditions -  °F | °C
As of 11:50 PM on Wednesday 22 Oct 2014 (Local Time) from KPSK Reporting Station
Overcast Overcast  
Wind Chill: 42°   Ceiling: 1800
Heat Index: 48°   Visibility: 10mi
Dew Point: 42°   Wind: 14mph
Humidity: 80%   Direction: 330°NNW
Pressure: 30.14"   Gusts: 21mph
Location:  37.24°N, 80.72°W
Report Text: KPSK 230350Z AUTO 33012G18KT 10SM OVC018 09/06 A3014 RMK AO2 T00880056
Loading
Personal Weather Stations






























Interactive Weather Map
Tropical Storm Tracking
New forecast layout! Learn more

10-Day Weather Forecast

Advertisements
Track Severe Weather on mobile